createdAt,value
2019-03-01T00:00:57.155Z,9.60
2019-03-01T00:02:13.101Z,9.60
2019-03-01T00:03:29.305Z,9.60
2019-03-01T00:04:45.509Z,9.60
2019-03-01T00:06:01.433Z,9.60
2019-03-01T00:07:17.282Z,9.60
2019-03-01T00:08:33.370Z,9.60
2019-03-01T00:09:49.717Z,9.60
2019-03-01T00:11:05.916Z,9.60
2019-03-01T00:12:21.796Z,9.60
2019-03-01T00:13:37.963Z,9.50
2019-03-01T00:14:53.904Z,9.50
2019-03-01T00:16:10.105Z,9.50
2019-03-01T00:17:26.159Z,9.50
2019-03-01T00:18:42.363Z,9.50
2019-03-01T00:19:58.427Z,9.50
2019-03-01T00:21:14.434Z,9.50
2019-03-01T00:22:30.623Z,9.50
2019-03-01T00:23:47.018Z,9.60
2019-03-01T00:25:03.000Z,9.50
2019-03-01T00:26:19.168Z,9.50
2019-03-01T00:27:35.394Z,9.50
2019-03-01T00:28:51.305Z,9.50
2019-03-01T00:30:07.790Z,9.40
2019-03-01T00:31:28.343Z,9.50
2019-03-01T00:32:43.866Z,9.50
2019-03-01T00:33:59.822Z,9.50
2019-03-01T00:35:15.649Z,9.50
2019-03-01T00:36:31.565Z,9.50
2019-03-01T00:37:47.310Z,9.50
2019-03-01T00:39:04.662Z,9.40
2019-03-01T00:40:21.021Z,9.50
2019-03-01T00:41:36.774Z,9.50
2019-03-01T00:42:52.541Z,9.50
2019-03-01T00:44:08.319Z,9.50
2019-03-01T00:45:24.348Z,9.50
2019-03-01T00:46:40.604Z,9.50
2019-03-01T00:47:56.669Z,9.50
2019-03-01T00:49:12.492Z,9.50
2019-03-01T00:50:28.487Z,9.50
2019-03-01T00:51:44.438Z,9.50
2019-03-01T00:53:00.369Z,9.50
2019-03-01T00:54:16.101Z,9.50
2019-03-01T00:55:32.233Z,9.50
2019-03-01T00:56:47.842Z,9.40
2019-03-01T00:58:04.123Z,9.40
2019-03-01T00:59:20.033Z,9.40
2019-03-01T01:00:36.171Z,9.30
2019-03-01T01:01:51.956Z,9.30
2019-03-01T01:03:07.816Z,9.30
2019-03-01T01:04:23.640Z,9.40
2019-03-01T01:05:39.917Z,9.40
2019-03-01T01:06:56.073Z,9.40
2019-03-01T01:08:12.305Z,9.30
2019-03-01T01:09:28.245Z,9.30
2019-03-01T01:10:44.143Z,9.30
2019-03-01T01:12:00.283Z,9.20
2019-03-01T01:13:16.159Z,9.30
2019-03-01T01:14:32.287Z,9.20
2019-03-01T01:15:48.246Z,9.20
2019-03-01T01:17:03.935Z,9.20
2019-03-01T01:18:19.847Z,9.20
2019-03-01T01:19:35.749Z,9.20
2019-03-01T01:20:51.772Z,9.20
2019-03-01T01:22:07.520Z,9.20
2019-03-01T01:23:23.695Z,9.20
2019-03-01T01:24:39.491Z,9.30
2019-03-01T01:25:55.646Z,9.30
2019-03-01T01:27:12.647Z,9.30
2019-03-01T01:28:29.066Z,9.30
2019-03-01T01:29:45.111Z,9.30
2019-03-01T01:31:01.071Z,9.30
2019-03-01T01:32:16.985Z,9.30
2019-03-01T01:33:33.353Z,9.30
2019-03-01T01:34:49.567Z,9.20
2019-03-01T01:36:05.592Z,9.20
2019-03-01T01:37:22.038Z,9.20
2019-03-01T01:38:37.973Z,9.30
2019-03-01T01:39:53.942Z,9.30
2019-03-01T01:41:09.996Z,9.30
2019-03-01T01:42:26.608Z,9.30
2019-03-01T01:43:42.762Z,9.30
2019-03-01T01:44:58.877Z,9.20
2019-03-01T01:46:14.992Z,9.20
2019-03-01T01:47:30.885Z,9.20
2019-03-01T01:48:46.614Z,9.20
2019-03-01T01:50:02.660Z,9.20
2019-03-01T01:51:18.601Z,9.20
2019-03-01T01:52:34.737Z,9.20
2019-03-01T01:53:51.054Z,9.20
2019-03-01T01:55:07.332Z,9.20
2019-03-01T01:56:23.038Z,9.20
2019-03-01T01:57:39.159Z,9.20
2019-03-01T01:58:55.281Z,9.20
2019-03-01T02:00:11.584Z,9.20
2019-03-01T02:01:27.724Z,9.30
2019-03-01T02:02:43.850Z,9.30
2019-03-01T02:04:00.134Z,9.30
2019-03-01T02:05:15.880Z,9.30
2019-03-01T02:06:31.813Z,9.30
2019-03-01T02:07:47.798Z,9.30
2019-03-01T02:09:04.226Z,9.30
2019-03-01T02:10:20.366Z,9.20
2019-03-01T02:11:36.756Z,9.20
2019-03-01T02:12:53.152Z,9.20
2019-03-01T02:14:09.083Z,9.20
2019-03-01T02:15:24.875Z,9.20
2019-03-01T02:16:40.905Z,9.20
2019-03-01T02:17:56.826Z,9.20
2019-03-01T02:19:12.941Z,9.20
2019-03-01T02:20:29.285Z,9.20
2019-03-01T02:21:45.122Z,9.20
2019-03-01T02:23:00.950Z,9.20
2019-03-01T02:24:16.680Z,9.20
2019-03-01T02:25:32.418Z,9.10
2019-03-01T02:26:48.673Z,9.10
2019-03-01T02:28:04.708Z,9.10
2019-03-01T02:29:21.042Z,9.10
2019-03-01T02:30:37.003Z,9.10
2019-03-01T02:31:52.853Z,9.10
2019-03-01T02:33:08.810Z,9.10
2019-03-01T02:34:24.918Z,9.10
2019-03-01T02:35:41.122Z,9.10
2019-03-01T02:36:57.158Z,9.10
2019-03-01T02:38:13.118Z,9.10
2019-03-01T02:39:29.159Z,9.10
2019-03-01T02:40:44.974Z,9.10
2019-03-01T02:42:01.069Z,9.00
2019-03-01T02:43:16.974Z,9.00
2019-03-01T02:44:32.747Z,8.90
2019-03-01T02:45:48.516Z,8.90
2019-03-01T02:47:04.512Z,8.80
2019-03-01T02:48:20.439Z,8.80
2019-03-01T02:49:38.633Z,8.70
2019-03-01T02:50:54.227Z,8.60
2019-03-01T02:52:10.296Z,8.50
2019-03-01T02:53:26.155Z,8.40
2019-03-01T02:54:42.364Z,8.30
2019-03-01T02:55:58.514Z,8.30
2019-03-01T02:57:14.779Z,8.30
2019-03-01T02:58:30.889Z,8.40
2019-03-01T02:59:46.773Z,8.40
2019-03-01T03:01:02.639Z,8.30
2019-03-01T03:02:18.536Z,8.30
2019-03-01T03:03:34.463Z,8.40
2019-03-01T03:04:50.397Z,8.30
2019-03-01T03:06:25.565Z,8.40
2019-03-01T03:07:46.473Z,8.40
2019-03-01T03:09:02.072Z,8.50
2019-03-01T03:10:18.256Z,8.40
2019-03-01T03:11:34.207Z,8.40
2019-03-01T03:12:50.085Z,8.50
2019-03-01T03:14:06.239Z,8.50
2019-03-01T03:17:06.571Z,8.50
2019-03-01T03:18:22.780Z,8.50
2019-03-01T03:19:38.826Z,8.50
2019-03-01T03:20:54.722Z,8.50
2019-03-01T03:22:10.710Z,8.50
2019-03-01T03:23:26.340Z,8.60
2019-03-01T03:24:42.342Z,8.60
2019-03-01T03:25:58.666Z,8.60
2019-03-01T03:27:15.082Z,8.60
2019-03-01T03:28:30.903Z,8.60
2019-03-01T03:29:47.134Z,8.60
2019-03-01T03:31:03.228Z,8.60
2019-03-01T03:32:19.156Z,8.60
2019-03-01T03:33:35.159Z,8.70
2019-03-01T03:34:51.454Z,8.70
2019-03-01T03:36:07.464Z,8.70
2019-03-01T03:37:23.436Z,8.70
2019-03-01T03:38:39.550Z,8.70
2019-03-01T03:39:55.618Z,8.70
2019-03-01T03:41:11.506Z,8.70
2019-03-01T03:42:27.929Z,8.70
2019-03-01T03:43:43.590Z,8.70
2019-03-01T03:44:59.735Z,8.80
2019-03-01T03:46:15.931Z,8.80
2019-03-01T03:47:31.951Z,8.80
2019-03-01T03:48:48.208Z,8.80
2019-03-01T03:50:04.242Z,8.80
2019-03-01T03:51:20.445Z,8.80
2019-03-01T03:52:36.714Z,8.80
2019-03-01T03:53:52.688Z,8.80
2019-03-01T03:55:08.990Z,8.80
2019-03-01T03:56:24.901Z,8.80
2019-03-01T03:57:40.743Z,8.80
2019-03-01T03:58:56.944Z,8.80
2019-03-01T04:00:13.142Z,8.80
2019-03-01T04:01:29.132Z,8.80
2019-03-01T04:02:45.411Z,8.80
2019-03-01T04:04:01.541Z,8.80
2019-03-01T04:05:17.367Z,8.90
2019-03-01T04:06:33.267Z,8.80
2019-03-01T04:07:49.226Z,8.90
2019-03-01T04:09:05.186Z,8.90
2019-03-01T04:10:20.930Z,8.90
2019-03-01T04:11:37.054Z,8.90
2019-03-01T04:12:53.172Z,8.90
2019-03-01T04:14:09.517Z,8.90
2019-03-01T04:15:25.392Z,8.90
2019-03-01T04:16:41.311Z,8.90
2019-03-01T04:17:58.270Z,8.90
2019-03-01T04:19:14.423Z,9.00
2019-03-01T04:20:30.320Z,8.90
2019-03-01T04:21:46.399Z,8.90
2019-03-01T04:23:02.076Z,9.00
2019-03-01T04:24:18.349Z,9.00
2019-03-01T04:25:34.391Z,9.00
2019-03-01T04:26:50.504Z,9.00
2019-03-01T04:28:06.749Z,9.00
2019-03-01T04:29:22.991Z,9.00
2019-03-01T04:30:38.909Z,9.00
2019-03-01T04:31:55.086Z,9.00
2019-03-01T04:33:10.929Z,9.00
2019-03-01T04:34:27.013Z,9.00
2019-03-01T04:35:43.046Z,9.00
2019-03-01T04:36:58.994Z,9.10
2019-03-01T04:38:14.822Z,9.10
2019-03-01T04:39:30.695Z,9.10
2019-03-01T04:40:46.685Z,9.10
2019-03-01T04:42:03.074Z,9.10
2019-03-01T04:43:18.614Z,9.10
2019-03-01T04:44:34.994Z,9.10
2019-03-01T04:45:51.469Z,9.10
2019-03-01T04:47:07.163Z,9.10
2019-03-01T04:48:23.015Z,9.10
2019-03-01T04:49:38.829Z,9.10
2019-03-01T04:50:54.812Z,9.10
2019-03-01T04:52:10.778Z,9.10
2019-03-01T04:53:26.669Z,9.10
2019-03-01T04:54:42.981Z,9.10
2019-03-01T04:55:59.550Z,9.10
2019-03-01T04:57:16.083Z,9.10
2019-03-01T04:58:32.378Z,9.10
2019-03-01T04:59:48.447Z,9.10
2019-03-01T05:01:04.517Z,9.10
2019-03-01T05:02:21.269Z,9.10
2019-03-01T05:03:37.145Z,9.10
2019-03-01T05:04:53.117Z,9.00
2019-03-01T05:06:09.012Z,9.10
2019-03-01T05:07:25.122Z,9.00
2019-03-01T05:08:41.143Z,9.00
2019-03-01T05:09:57.329Z,9.00
2019-03-01T05:11:13.012Z,8.90
2019-03-01T05:12:29.296Z,9.00
2019-03-01T05:13:45.173Z,8.90
2019-03-01T05:15:01.217Z,8.90
2019-03-01T05:16:17.040Z,8.80
2019-03-01T05:17:33.102Z,8.80
2019-03-01T05:18:49.216Z,8.80
2019-03-01T05:20:05.688Z,8.80
2019-03-01T05:21:22.224Z,8.80
2019-03-01T05:22:38.275Z,8.70
2019-03-01T05:23:54.700Z,8.70
2019-03-01T05:25:10.567Z,8.70
2019-03-01T05:26:26.357Z,8.80
2019-03-01T05:27:42.275Z,8.80
2019-03-01T05:28:58.203Z,8.80
2019-03-01T05:30:14.074Z,8.80
2019-03-01T05:31:18.547Z,8.70
2019-03-01T05:32:42.030Z,8.70
2019-03-01T05:34:05.833Z,8.80
2019-03-01T05:35:29.377Z,8.80
2019-03-01T05:41:34.928Z,8.70
2019-03-01T05:42:58.381Z,8.70
2019-03-01T05:46:04.455Z,8.80
2019-03-01T05:49:10.675Z,8.80
2019-03-01T05:52:16.619Z,8.80
2019-03-01T05:55:10.559Z,8.80
2019-03-01T05:56:34.198Z,8.80
2019-03-01T05:58:16.972Z,8.90
2019-03-01T05:59:40.545Z,8.80
2019-03-01T06:01:06.048Z,8.80
2019-03-01T06:02:41.722Z,8.80
2019-03-01T06:04:09.627Z,8.80
2019-03-01T06:07:43.983Z,8.80
2019-03-01T06:09:13.234Z,8.80
2019-03-01T06:10:55.836Z,8.80
2019-03-01T06:12:38.720Z,8.80
2019-03-01T06:14:21.471Z,8.80
2019-03-01T06:16:04.046Z,8.80
2019-03-01T06:17:46.542Z,8.80
2019-03-01T06:19:29.056Z,8.80
2019-03-01T06:20:58.432Z,8.70
2019-03-01T06:22:40.883Z,8.70
2019-03-01T06:24:23.822Z,8.80
2019-03-01T06:26:06.798Z,8.70
2019-03-01T06:27:49.479Z,8.70
2019-03-01T06:29:32.140Z,8.70
2019-03-01T06:31:11.031Z,8.70
2019-03-01T06:32:53.525Z,8.70
2019-03-01T06:34:36.064Z,8.70
2019-03-01T06:36:19.528Z,8.70
2019-03-01T06:38:02.798Z,8.70
2019-03-01T06:40:04.141Z,8.70
2019-03-01T06:41:46.813Z,8.70
2019-03-01T06:43:29.686Z,8.70
2019-03-01T06:45:12.270Z,8.70
2019-03-01T06:50:18.300Z,8.70
2019-03-01T06:53:10.599Z,8.80
2019-03-01T06:56:16.943Z,8.70
2019-03-01T06:59:09.593Z,8.70
2019-03-01T07:04:13.010Z,8.80
2019-03-01T07:05:36.609Z,8.80
2019-03-01T07:07:00.069Z,8.90
2019-03-01T07:09:58.449Z,9.00
2019-03-01T07:13:06.112Z,9.20
2019-03-01T07:16:13.749Z,9.20
2019-03-01T07:17:37.214Z,9.20
2019-03-01T07:19:00.642Z,9.30
2019-03-01T07:22:06.592Z,9.30
2019-03-01T07:23:36.521Z,9.40
2019-03-01T07:25:07.071Z,9.40
2019-03-01T07:26:20.475Z,9.40
2019-03-01T07:29:28.145Z,9.50
2019-03-01T07:30:51.672Z,9.50
2019-03-01T07:34:10.100Z,9.60
2019-03-01T07:35:23.408Z,9.60
2019-03-01T07:38:22.422Z,9.60
2019-03-01T07:39:38.547Z,9.70
2019-03-01T07:40:54.864Z,9.70
2019-03-01T07:42:11.298Z,9.70
2019-03-01T07:43:27.503Z,9.60
2019-03-01T07:44:44.679Z,9.60
2019-03-01T07:46:01.436Z,9.60
2019-03-01T07:47:17.722Z,9.60
2019-03-01T07:48:33.566Z,9.50
2019-03-01T07:49:49.622Z,9.50
2019-03-01T07:54:41.110Z,9.60
2019-03-01T07:55:57.201Z,9.60
2019-03-01T07:57:14.826Z,9.50
2019-03-01T07:58:30.981Z,9.40
2019-03-01T07:59:46.960Z,9.50
2019-03-01T08:01:03.059Z,9.40
2019-03-01T08:02:18.784Z,9.40
2019-03-01T08:03:35.103Z,9.50
2019-03-01T08:04:51.228Z,9.40
2019-03-01T08:06:07.078Z,9.40
2019-03-01T08:07:23.526Z,9.50
2019-03-01T08:08:40.192Z,9.40
2019-03-01T08:09:55.936Z,9.50
2019-03-01T08:11:12.306Z,9.50
2019-03-01T08:12:28.235Z,9.50
2019-03-01T08:13:44.748Z,9.40
2019-03-01T08:15:04.131Z,9.40
2019-03-01T08:19:36.106Z,9.30
2019-03-01T08:22:48.592Z,9.20
2019-03-01T08:24:07.648Z,9.20
2019-03-01T08:25:33.125Z,9.20
2019-03-01T08:28:39.762Z,9.20
2019-03-01T08:30:03.180Z,9.20
2019-03-01T08:33:22.644Z,9.20
2019-03-01T08:34:46.141Z,9.20
2019-03-01T08:37:31.916Z,9.20
2019-03-01T08:38:48.987Z,9.30
2019-03-01T08:40:05.974Z,9.30
2019-03-01T08:41:25.181Z,9.30
2019-03-01T08:42:39.905Z,9.30
2019-03-01T08:43:56.282Z,9.30
2019-03-01T08:45:12.022Z,9.40
2019-03-01T08:46:28.815Z,9.40
2019-03-01T08:47:45.109Z,9.40
2019-03-01T08:49:01.648Z,9.40
2019-03-01T08:50:17.390Z,9.40
2019-03-01T08:51:33.321Z,9.50
2019-03-01T08:52:49.225Z,9.50
2019-03-01T08:54:05.328Z,9.50
2019-03-01T08:55:21.569Z,9.50
2019-03-01T08:56:37.630Z,9.60
2019-03-01T08:57:53.604Z,9.60
2019-03-01T08:59:10.056Z,9.60
2019-03-01T09:00:27.014Z,9.60
2019-03-01T09:01:45.009Z,9.60
2019-03-01T09:03:02.603Z,9.70
2019-03-01T09:04:21.446Z,9.60
2019-03-01T09:05:37.398Z,9.70
2019-03-01T09:06:53.349Z,9.70
2019-03-01T09:08:09.187Z,9.60
2019-03-01T09:09:25.334Z,9.70
2019-03-01T09:10:41.282Z,9.70
2019-03-01T09:11:57.696Z,9.70
2019-03-01T09:13:13.590Z,9.70
2019-03-01T09:14:29.588Z,9.70
2019-03-01T09:15:46.177Z,9.80
2019-03-01T09:17:03.677Z,9.80
2019-03-01T09:18:19.808Z,9.80
2019-03-01T09:19:36.234Z,9.80
2019-03-01T09:20:52.103Z,9.80
2019-03-01T09:22:08.245Z,9.80
2019-03-01T09:23:27.339Z,9.80
2019-03-01T09:24:42.070Z,9.70
2019-03-01T09:25:58.307Z,9.70
2019-03-01T09:27:14.486Z,9.80
2019-03-01T09:28:32.769Z,9.70
2019-03-01T09:29:48.579Z,9.80
2019-03-01T09:31:04.203Z,9.80
2019-03-01T09:32:20.199Z,9.80
2019-03-01T09:33:36.253Z,9.90
2019-03-01T09:34:55.284Z,9.90
2019-03-01T09:36:30.243Z,9.90
2019-03-01T09:37:46.719Z,10.10
2019-03-01T09:39:03.304Z,10.20
2019-03-01T09:40:19.143Z,10.30
2019-03-01T09:41:36.587Z,10.40
2019-03-01T09:42:54.658Z,10.50
2019-03-01T09:44:12.010Z,10.60
2019-03-01T09:45:35.878Z,10.70
2019-03-01T09:46:46.381Z,10.80
2019-03-01T09:48:02.559Z,11.00
2019-03-01T09:49:21.503Z,11.10
2019-03-01T09:50:38.265Z,11.20
2019-03-01T09:51:54.582Z,11.30
2019-03-01T09:53:10.812Z,11.40
2019-03-01T09:54:26.701Z,11.40
2019-03-01T09:55:42.860Z,11.60
2019-03-01T09:56:59.123Z,11.80
2019-03-01T09:58:15.048Z,12.10
2019-03-01T09:59:31.255Z,12.20
2019-03-01T10:00:55.997Z,12.30
2019-03-01T10:02:05.545Z,12.30
2019-03-01T10:03:21.819Z,12.20
2019-03-01T10:04:37.757Z,12.20
2019-03-01T10:05:53.612Z,12.00
2019-03-01T10:07:09.497Z,12.00
2019-03-01T10:08:25.859Z,11.90
2019-03-01T10:09:41.937Z,11.80
2019-03-01T10:10:57.847Z,11.80
2019-03-01T10:12:14.115Z,11.90
2019-03-01T10:13:30.550Z,12.00
2019-03-01T10:14:46.614Z,12.10
2019-03-01T10:16:02.466Z,12.20
2019-03-01T10:17:18.440Z,12.20
2019-03-01T10:18:34.409Z,12.20
2019-03-01T10:19:52.543Z,12.10
2019-03-01T10:21:08.497Z,12.10
2019-03-01T10:22:24.740Z,12.10
2019-03-01T10:23:40.770Z,12.10
2019-03-01T10:24:56.698Z,12.00
2019-03-01T10:26:12.925Z,11.90
2019-03-01T10:27:28.744Z,11.90
2019-03-01T10:28:44.914Z,11.60
2019-03-01T10:30:01.159Z,11.50
2019-03-01T10:31:16.807Z,11.40
2019-03-01T10:32:32.810Z,11.20
2019-03-01T10:33:48.969Z,11.10
2019-03-01T10:35:04.820Z,10.90
2019-03-01T10:36:20.509Z,10.70
2019-03-01T10:37:36.491Z,10.60
2019-03-01T10:38:52.452Z,10.30
2019-03-01T10:40:08.810Z,10.10
2019-03-01T10:41:24.802Z,9.80
2019-03-01T10:42:40.997Z,9.70
2019-03-01T10:43:57.050Z,9.50
2019-03-01T10:45:13.354Z,9.40
2019-03-01T10:46:29.532Z,9.20
2019-03-01T10:47:45.577Z,9.10
2019-03-01T10:49:01.787Z,8.90
2019-03-01T10:50:17.658Z,8.90
2019-03-01T10:51:33.488Z,8.80
2019-03-01T10:52:49.593Z,8.80
2019-03-01T10:54:05.516Z,8.70
2019-03-01T10:55:21.557Z,8.70
2019-03-01T10:56:37.873Z,8.70
2019-03-01T10:57:53.905Z,8.70
2019-03-01T10:59:09.775Z,8.60
2019-03-01T11:00:26.141Z,8.60
2019-03-01T11:01:42.623Z,8.60
2019-03-01T11:02:58.723Z,8.60
2019-03-01T11:04:14.786Z,8.50
2019-03-01T11:05:30.808Z,8.50
2019-03-01T11:06:46.982Z,8.50
2019-03-01T11:08:02.861Z,8.50
2019-03-01T11:09:18.811Z,8.50
2019-03-01T11:10:34.737Z,8.40
2019-03-01T11:11:50.513Z,8.40
2019-03-01T11:13:06.642Z,8.30
2019-03-01T11:14:22.623Z,8.20
2019-03-01T11:15:38.867Z,8.20
2019-03-01T11:16:55.418Z,8.20
2019-03-01T11:18:11.845Z,8.10
2019-03-01T11:19:27.726Z,8.10
2019-03-01T11:20:43.718Z,7.90
2019-03-01T11:22:00.930Z,7.90
2019-03-01T11:23:16.573Z,7.80
2019-03-01T11:24:32.835Z,7.90
2019-03-01T11:25:48.922Z,7.90
2019-03-01T11:27:12.732Z,7.80
2019-03-01T11:28:22.921Z,7.80
2019-03-01T11:29:39.024Z,7.80
2019-03-01T11:30:54.985Z,7.90
2019-03-01T11:32:11.200Z,7.90
2019-03-01T11:33:27.185Z,7.80
2019-03-01T11:34:43.259Z,7.70
2019-03-01T11:35:59.306Z,7.70
2019-03-01T11:37:15.459Z,7.70
2019-03-01T11:38:31.483Z,7.60
2019-03-01T11:39:47.808Z,7.50
2019-03-01T11:41:04.402Z,7.50
2019-03-01T11:42:20.813Z,7.50
2019-03-01T11:43:36.673Z,7.40
2019-03-01T11:44:52.769Z,7.30
2019-03-01T11:46:08.961Z,7.30
2019-03-01T11:47:25.179Z,7.20
2019-03-01T11:48:41.836Z,7.20
2019-03-01T11:49:57.365Z,7.00
2019-03-01T11:51:13.255Z,6.90
2019-03-01T11:52:29.026Z,6.90
2019-03-01T11:53:44.966Z,6.90
2019-03-01T11:55:01.038Z,6.80
2019-03-01T11:56:17.203Z,6.80
2019-03-01T11:57:33.191Z,6.70
2019-03-01T11:58:49.247Z,6.70
2019-03-01T12:00:05.221Z,6.70
2019-03-01T12:01:16.864Z,6.70
2019-03-01T12:02:15.959Z,6.60
2019-03-01T12:03:20.408Z,6.60
2019-03-01T12:04:24.813Z,6.70
2019-03-01T12:05:29.171Z,6.70
2019-03-01T12:06:33.620Z,6.70
2019-03-01T12:07:37.983Z,6.70
2019-03-01T12:08:42.433Z,6.80
2019-03-01T12:09:46.813Z,6.80
2019-03-01T12:10:51.306Z,6.80
2019-03-01T12:11:55.770Z,6.90
2019-03-01T12:13:00.125Z,6.80
2019-03-01T12:14:07.261Z,6.80
2019-03-01T12:15:11.946Z,6.80
2019-03-01T12:16:16.440Z,6.80
2019-03-01T12:17:20.909Z,6.90
2019-03-01T12:18:25.342Z,6.90
2019-03-01T12:19:29.797Z,6.90
2019-03-01T12:20:34.331Z,6.90
2019-03-01T12:21:38.731Z,6.90
2019-03-01T12:22:43.166Z,6.90
2019-03-01T12:23:47.700Z,6.90
2019-03-01T12:24:52.229Z,6.90
2019-03-01T12:25:56.647Z,6.90
2019-03-01T12:27:01.093Z,6.90
2019-03-01T12:28:05.466Z,6.90
2019-03-01T12:29:09.907Z,6.90
2019-03-01T12:30:16.378Z,6.90
2019-03-01T12:31:20.872Z,6.90
2019-03-01T12:32:25.281Z,6.90
2019-03-01T12:33:29.639Z,6.90
2019-03-01T12:34:34.313Z,6.90
2019-03-01T12:35:38.967Z,6.80
2019-03-01T12:36:43.335Z,6.80
2019-03-01T12:37:47.889Z,6.80
2019-03-01T12:38:52.330Z,6.80
2019-03-01T12:39:56.727Z,6.70
2019-03-01T12:41:01.161Z,6.70
2019-03-01T12:42:05.662Z,6.70
2019-03-01T12:43:10.363Z,6.70
2019-03-01T12:44:14.900Z,6.70
2019-03-01T12:45:19.371Z,6.80
2019-03-01T12:46:23.860Z,6.80
2019-03-01T12:47:28.259Z,6.80
2019-03-01T12:48:32.688Z,6.80
2019-03-01T12:49:37.178Z,6.70
2019-03-01T12:50:41.836Z,6.80
2019-03-01T12:51:46.323Z,6.70
2019-03-01T12:52:50.777Z,6.80
2019-03-01T12:53:55.259Z,6.80
2019-03-01T12:54:59.786Z,6.80
2019-03-01T12:56:04.667Z,6.80
2019-03-01T12:57:09.088Z,6.80
2019-03-01T12:58:19.502Z,6.80
2019-03-01T12:59:19.748Z,6.90
2019-03-01T13:00:28.979Z,6.90
2019-03-01T13:01:33.441Z,6.90
2019-03-01T13:02:37.904Z,6.90
2019-03-01T13:03:43.825Z,6.90
2019-03-01T13:04:49.899Z,7.00
2019-03-01T13:05:54.502Z,7.00
2019-03-01T13:06:59.013Z,6.90
2019-03-01T13:08:03.759Z,6.90
2019-03-01T13:09:14.393Z,6.90
2019-03-01T13:10:24.299Z,7.00
2019-03-01T13:11:28.728Z,7.00
2019-03-01T13:12:33.194Z,7.00
2019-03-01T13:13:38.416Z,7.00
2019-03-01T13:14:43.786Z,7.00
2019-03-01T13:15:49.542Z,7.10
2019-03-01T13:16:54.353Z,7.10
2019-03-01T13:17:58.862Z,7.10
2019-03-01T13:19:03.260Z,7.10
2019-03-01T13:20:09.752Z,7.20
2019-03-01T13:21:14.184Z,7.20
2019-03-01T13:22:18.661Z,7.30
2019-03-01T13:23:23.081Z,7.30
2019-03-01T13:24:27.475Z,7.30
2019-03-01T13:25:31.936Z,7.30
2019-03-01T13:26:37.670Z,7.40
2019-03-01T13:27:42.561Z,7.40
2019-03-01T13:28:47.861Z,7.40
2019-03-01T13:29:55.269Z,7.30
2019-03-01T13:30:58.599Z,7.30
2019-03-01T13:32:03.154Z,7.30
2019-03-01T13:33:07.567Z,7.20
2019-03-01T13:34:13.755Z,7.10
2019-03-01T13:35:18.266Z,7.10
2019-03-01T13:36:22.809Z,7.10
2019-03-01T13:37:27.286Z,7.10
2019-03-01T13:38:34.003Z,7.10
2019-03-01T13:39:37.822Z,7.10
2019-03-01T13:40:42.494Z,7.10
2019-03-01T13:41:48.198Z,7.10
2019-03-01T13:42:52.733Z,7.00
2019-03-01T13:43:57.130Z,7.10
2019-03-01T13:45:01.600Z,7.10
2019-03-01T13:46:06.207Z,7.10
2019-03-01T13:47:10.705Z,7.10
2019-03-01T13:48:15.727Z,7.10
2019-03-01T13:49:21.326Z,7.20
2019-03-01T13:50:25.829Z,7.20
2019-03-01T13:51:30.295Z,7.20
2019-03-01T13:52:34.688Z,7.20
2019-03-01T13:53:48.525Z,7.30
2019-03-01T13:54:46.204Z,7.30
2019-03-01T13:55:51.433Z,7.20
2019-03-01T13:56:55.849Z,7.20
2019-03-01T13:58:00.317Z,7.20
2019-03-01T13:59:04.870Z,7.20
2019-03-01T14:00:12.119Z,7.20
2019-03-01T14:01:16.654Z,7.10
2019-03-01T14:02:21.242Z,7.10
2019-03-01T14:03:27.795Z,7.00
2019-03-01T14:04:31.699Z,7.00
2019-03-01T14:05:36.203Z,7.00
2019-03-01T14:06:40.604Z,7.00
2019-03-01T14:07:45.368Z,7.00
2019-03-01T14:08:49.832Z,7.00
2019-03-01T14:09:54.251Z,7.00
2019-03-01T14:10:58.732Z,7.00
2019-03-01T14:12:03.239Z,7.00
2019-03-01T14:13:07.647Z,7.10
2019-03-01T14:14:12.031Z,7.00
2019-03-01T14:15:17.215Z,7.10
2019-03-01T14:16:21.828Z,7.10
2019-03-01T14:17:26.349Z,7.10
2019-03-01T14:18:33.434Z,7.10
2019-03-01T14:19:39.021Z,7.10
2019-03-01T14:20:43.338Z,7.10
2019-03-01T14:21:47.709Z,7.10
2019-03-01T14:22:52.149Z,7.10
2019-03-01T14:23:56.551Z,7.10
2019-03-01T14:25:02.503Z,7.10
2019-03-01T14:26:07.172Z,7.10
2019-03-01T14:27:12.042Z,7.00
2019-03-01T14:28:16.496Z,7.00
2019-03-01T14:29:20.908Z,7.10
2019-03-01T14:30:29.120Z,7.10
2019-03-01T14:31:31.428Z,7.10
2019-03-01T14:32:35.901Z,7.00
2019-03-01T14:33:40.425Z,7.00
2019-03-01T14:34:47.752Z,7.00
2019-03-01T14:35:51.036Z,7.10
2019-03-01T14:36:55.463Z,7.00
2019-03-01T14:37:59.913Z,6.90
2019-03-01T14:39:06.756Z,7.00
2019-03-01T14:40:12.226Z,7.00
2019-03-01T14:41:16.794Z,6.90
2019-03-01T14:42:21.323Z,7.00
2019-03-01T14:43:25.775Z,6.90
2019-03-01T14:44:30.632Z,6.90
2019-03-01T14:45:36.251Z,7.00
2019-03-01T14:46:40.665Z,6.90
2019-03-01T14:47:45.098Z,6.90
2019-03-01T14:48:49.569Z,6.90
2019-03-01T14:49:57.631Z,6.90
2019-03-01T14:51:00.351Z,6.90
2019-03-01T14:52:04.830Z,6.90
2019-03-01T14:53:09.301Z,6.90
2019-03-01T14:54:13.946Z,6.90
2019-03-01T14:55:23.087Z,6.90
2019-03-01T14:56:34.914Z,6.90
2019-03-01T14:57:43.079Z,6.90
2019-03-01T14:58:59.026Z,6.80
2019-03-01T15:00:17.649Z,6.80
2019-03-01T15:01:26.666Z,6.80
2019-03-01T15:03:02.721Z,6.80
2019-03-01T15:04:07.412Z,6.70
2019-03-01T15:05:17.780Z,6.70
2019-03-01T15:06:19.228Z,6.70
2019-03-01T15:07:27.953Z,6.60
2019-03-01T15:08:32.994Z,6.60
2019-03-01T15:09:37.451Z,6.60
2019-03-01T15:10:41.996Z,6.60
2019-03-01T15:11:46.432Z,6.60
2019-03-01T15:12:53.875Z,6.60
2019-03-01T15:13:57.616Z,6.60
2019-03-01T15:15:02.060Z,6.60
2019-03-01T15:16:06.954Z,6.50
2019-03-01T15:17:11.498Z,6.60
2019-03-01T15:18:15.865Z,6.60
2019-03-01T15:19:20.308Z,6.60
2019-03-01T15:20:24.819Z,6.60
2019-03-01T15:21:29.265Z,6.50
2019-03-01T15:22:33.694Z,6.50
2019-03-01T15:23:38.145Z,6.50
2019-03-01T15:24:42.589Z,6.50
2019-03-01T15:25:48.556Z,6.50
2019-03-01T15:26:53.168Z,6.40
2019-03-01T15:27:57.634Z,6.50
2019-03-01T15:29:02.096Z,6.50
2019-03-01T15:30:10.116Z,6.50
2019-03-01T15:31:14.688Z,6.50
2019-03-01T15:32:19.101Z,6.50
2019-03-01T15:33:23.505Z,6.50
2019-03-01T15:34:28.013Z,6.50
2019-03-01T15:35:32.503Z,6.50
2019-03-01T15:36:37.003Z,6.40
2019-03-01T15:37:41.411Z,6.40
2019-03-01T15:38:46.069Z,6.40
2019-03-01T15:39:51.287Z,6.40
2019-03-01T15:40:56.620Z,6.30
2019-03-01T15:42:01.023Z,6.30
2019-03-01T15:43:05.485Z,6.30
2019-03-01T15:44:09.860Z,6.30
2019-03-01T15:45:14.364Z,6.30
2019-03-01T15:46:18.891Z,6.20
2019-03-01T15:47:23.773Z,6.20
2019-03-01T15:48:29.521Z,6.10
2019-03-01T15:49:34.053Z,6.10
2019-03-01T15:50:38.680Z,6.10
2019-03-01T15:51:43.219Z,6.10
2019-03-01T15:52:49.658Z,6.10
2019-03-01T15:53:53.820Z,6.00
2019-03-01T15:54:58.263Z,6.00
2019-03-01T15:56:05.968Z,6.00
2019-03-01T15:57:08.937Z,6.10
2019-03-01T15:58:13.364Z,6.00
2019-03-01T15:59:17.843Z,6.00
2019-03-01T16:00:25.674Z,6.00
2019-03-01T16:01:28.592Z,6.00
2019-03-01T16:02:33.124Z,6.00
2019-03-01T16:03:37.564Z,6.10
2019-03-01T16:04:42.090Z,6.10
2019-03-01T16:05:46.589Z,6.10
2019-03-01T16:06:55.274Z,6.10
2019-03-01T16:07:57.437Z,6.10
2019-03-01T16:09:01.896Z,6.10
2019-03-01T16:10:07.963Z,6.10
2019-03-01T16:11:13.599Z,6.10
2019-03-01T16:12:18.222Z,6.00
2019-03-01T16:13:22.792Z,6.00
2019-03-01T16:14:27.621Z,6.00
2019-03-01T16:15:34.901Z,6.00
2019-03-01T16:16:38.402Z,6.00
2019-03-01T16:17:42.995Z,6.00
2019-03-01T16:18:47.969Z,6.00
2019-03-01T16:19:54.421Z,5.90
2019-03-01T16:21:01.943Z,6.00
2019-03-01T16:22:05.395Z,6.00
2019-03-01T16:23:09.939Z,5.90
2019-03-01T16:24:14.602Z,5.90
2019-03-01T16:25:20.640Z,5.90
2019-03-01T16:26:29.878Z,5.90
2019-03-01T16:27:32.209Z,5.90
2019-03-01T16:28:37.513Z,5.90
2019-03-01T16:29:43.142Z,5.90
2019-03-01T16:30:49.722Z,5.80
2019-03-01T16:31:54.520Z,5.80
2019-03-01T16:32:59.112Z,5.80
2019-03-01T16:34:04.346Z,5.80
2019-03-01T16:35:16.367Z,5.80
2019-03-01T16:36:23.452Z,5.80
2019-03-01T16:37:28.764Z,5.70
2019-03-01T16:38:40.695Z,5.70
2019-03-01T16:39:39.925Z,5.80
2019-03-01T16:40:44.548Z,5.80
2019-03-01T16:41:51.781Z,5.80
2019-03-01T16:42:55.891Z,5.80
2019-03-01T16:44:01.318Z,5.80
2019-03-01T16:45:07.055Z,5.70
2019-03-01T16:46:11.640Z,5.70
2019-03-01T16:47:16.259Z,5.80
2019-03-01T16:48:21.017Z,5.80
2019-03-01T16:49:27.205Z,5.70
2019-03-01T16:50:31.899Z,5.80
2019-03-01T16:51:36.336Z,5.80
2019-03-01T16:52:40.957Z,5.70
2019-03-01T16:53:45.678Z,5.70
2019-03-01T16:54:51.422Z,5.70
2019-03-01T16:55:59.278Z,5.70
2019-03-01T16:57:02.841Z,5.60
2019-03-01T16:58:07.637Z,5.60
2019-03-01T16:59:12.393Z,5.60
2019-03-01T17:00:19.365Z,5.60
2019-03-01T17:01:26.069Z,5.70
2019-03-01T17:02:30.018Z,5.70
2019-03-01T17:03:53.752Z,5.70
2019-03-01T17:04:59.766Z,5.70
2019-03-01T17:06:28.870Z,5.70
2019-03-01T17:07:35.203Z,5.70
2019-03-01T17:08:40.481Z,5.70
2019-03-01T17:09:47.318Z,5.70